createdAt,value
2024-02-26T00:00:15.409Z,56.90
2024-02-26T00:02:42.434Z,60.70
2024-02-26T00:05:09.606Z,63.80
2024-02-26T00:07:36.628Z,41.27
2024-02-26T00:10:03.737Z,53.50
2024-02-26T00:12:30.909Z,42.80
2024-02-26T00:14:57.886Z,51.50
2024-02-26T00:17:25.279Z,45.53
2024-02-26T00:19:52.316Z,44.70
2024-02-26T00:22:19.290Z,32.27
2024-02-26T00:24:46.226Z,41.80
2024-02-26T00:27:13.246Z,51.07
2024-02-26T00:29:40.249Z,48.47
2024-02-26T00:32:07.384Z,41.83
2024-02-26T00:34:34.415Z,44.17
2024-02-26T00:37:01.333Z,67.87
2024-02-26T00:39:28.301Z,62.30
2024-02-26T00:41:55.235Z,51.70
2024-02-26T00:44:22.212Z,30.90
2024-02-26T00:46:49.161Z,46.03
2024-02-26T00:49:16.132Z,34.20
2024-02-26T00:51:43.204Z,48.30
2024-02-26T00:54:10.157Z,76.97
2024-02-26T00:56:37.163Z,54.10
2024-02-26T00:59:04.088Z,61.03
2024-02-26T01:01:31.076Z,32.53
2024-02-26T01:03:58.109Z,101.27
2024-02-26T01:06:25.335Z,39.13
2024-02-26T01:08:52.381Z,42.80
2024-02-26T01:11:19.339Z,59.43
2024-02-26T01:13:46.287Z,48.50
2024-02-26T01:16:13.205Z,49.13
2024-02-26T01:18:40.352Z,43.10
2024-02-26T01:21:07.436Z,51.57
2024-02-26T01:23:34.420Z,59.60
2024-02-26T01:26:01.402Z,60.63
2024-02-26T01:28:28.297Z,48.27
2024-02-26T01:30:55.245Z,45.73
2024-02-26T01:33:22.325Z,62.33
2024-02-26T01:35:49.539Z,69.13
2024-02-26T01:38:16.545Z,56.13
2024-02-26T01:40:43.522Z,71.73
2024-02-26T01:43:10.373Z,47.37
2024-02-26T01:45:37.289Z,42.73
2024-02-26T01:48:04.988Z,43.57
2024-02-26T01:50:32.054Z,51.37
2024-02-26T01:52:59.334Z,39.70
2024-02-26T01:55:27.695Z,32.90
2024-02-26T01:57:55.688Z,44.33
2024-02-26T02:00:23.974Z,71.13
2024-02-26T02:02:52.363Z,31.43
2024-02-26T02:05:21.758Z,37.77
2024-02-26T02:07:49.038Z,47.67
2024-02-26T02:10:17.386Z,37.33
2024-02-26T02:12:44.961Z,35.43
2024-02-26T02:15:12.214Z,30.57
2024-02-26T02:17:39.323Z,34.00
2024-02-26T02:20:11.112Z,41.37
2024-02-26T02:22:38.261Z,42.33
2024-02-26T02:25:05.785Z,38.40
2024-02-26T02:27:32.958Z,39.87
2024-02-26T02:30:00.121Z,40.53
2024-02-26T02:32:27.974Z,33.20
2024-02-26T02:34:54.991Z,54.93
2024-02-26T02:37:21.931Z,54.30
2024-02-26T02:39:48.842Z,36.17
2024-02-26T02:42:16.713Z,64.63
2024-02-26T02:44:43.724Z,116.97
2024-02-26T02:47:10.689Z,43.60
2024-02-26T02:49:37.847Z,97.67
2024-02-26T02:52:05.308Z,83.23
2024-02-26T02:54:32.656Z,54.20
2024-02-26T02:56:59.743Z,69.57
2024-02-26T02:59:26.849Z,59.67
2024-02-26T03:01:53.837Z,44.23
2024-02-26T03:04:20.827Z,61.33
2024-02-26T03:06:47.889Z,27.73
2024-02-26T03:09:14.901Z,55.23
2024-02-26T03:11:42.157Z,64.57
2024-02-26T03:14:09.242Z,40.50
2024-02-26T03:16:36.353Z,69.80
2024-02-26T03:19:03.429Z,89.33
2024-02-26T03:21:30.535Z,94.53
2024-02-26T03:23:57.511Z,52.70
2024-02-26T03:26:24.430Z,61.80
2024-02-26T03:28:51.377Z,56.13
2024-02-26T03:31:18.453Z,57.30
2024-02-26T03:33:45.568Z,47.10
2024-02-26T03:36:12.808Z,44.37
2024-02-26T03:38:39.804Z,47.43
2024-02-26T03:41:06.752Z,55.70
2024-02-26T03:43:33.636Z,43.83
2024-02-26T03:46:00.576Z,56.33
2024-02-26T03:48:27.578Z,62.20
2024-02-26T03:50:54.644Z,39.53
2024-02-26T03:53:21.584Z,47.00
2024-02-26T03:55:48.580Z,46.97
2024-02-26T03:58:15.499Z,44.17
2024-02-26T04:00:44.287Z,36.57
2024-02-26T04:03:11.675Z,27.43
2024-02-26T04:05:38.654Z,44.50
2024-02-26T04:08:06.921Z,32.43
2024-02-26T04:10:34.502Z,34.70
2024-02-26T04:13:01.400Z,32.00
2024-02-26T04:15:28.319Z,26.13
2024-02-26T04:17:55.448Z,31.27
2024-02-26T04:20:22.511Z,39.30
2024-02-26T04:22:49.440Z,44.63
2024-02-26T04:25:16.376Z,42.27
2024-02-26T04:27:43.309Z,34.53
2024-02-26T04:30:11.101Z,42.57
2024-02-26T04:32:38.173Z,44.50
2024-02-26T04:35:05.573Z,43.63
2024-02-26T04:37:32.728Z,41.80
2024-02-26T04:40:01.667Z,30.20
2024-02-26T04:42:29.063Z,60.00
2024-02-26T04:44:56.491Z,39.80
2024-02-26T04:47:24.057Z,36.97
2024-02-26T04:49:52.197Z,28.03
2024-02-26T04:52:20.569Z,33.40
2024-02-26T04:54:47.420Z,36.60
2024-02-26T04:57:14.387Z,38.37
2024-02-26T04:59:41.524Z,41.43
2024-02-26T05:02:08.443Z,35.97
2024-02-26T05:04:35.440Z,47.70
2024-02-26T05:07:02.626Z,59.60
2024-02-26T05:09:29.687Z,36.73
2024-02-26T05:11:56.719Z,48.47
2024-02-26T05:14:23.683Z,53.03
2024-02-26T05:16:50.682Z,35.80
2024-02-26T05:19:17.749Z,54.03
2024-02-26T05:21:44.882Z,66.10
2024-02-26T05:24:11.898Z,75.90
2024-02-26T05:26:39.104Z,133.37
2024-02-26T05:29:06.125Z,103.53
2024-02-26T05:31:33.115Z,104.37
2024-02-26T05:34:00.248Z,86.40
2024-02-26T05:36:27.606Z,176.23
2024-02-26T05:38:54.532Z,71.90
2024-02-26T05:41:21.585Z,57.70
2024-02-26T05:43:48.491Z,66.03
2024-02-26T05:46:18.788Z,147.03
2024-02-26T05:48:49.240Z,55.30
2024-02-26T05:51:16.584Z,49.80
2024-02-26T05:53:43.588Z,69.93
2024-02-26T05:56:10.834Z,61.77
2024-02-26T05:58:37.820Z,155.30
2024-02-26T06:01:04.917Z,117.47
2024-02-26T06:03:32.095Z,66.17
2024-02-26T06:05:59.198Z,60.87
2024-02-26T06:08:26.365Z,66.57
2024-02-26T06:10:53.257Z,142.90
2024-02-26T06:13:20.229Z,44.03
2024-02-26T06:15:47.103Z,71.10
2024-02-26T06:18:15.061Z,49.93
2024-02-26T06:20:42.304Z,56.40
2024-02-26T06:23:09.318Z,60.57
2024-02-26T06:25:36.244Z,45.20
2024-02-26T06:28:03.210Z,31.73
2024-02-26T06:30:30.164Z,57.63
2024-02-26T06:32:57.281Z,42.07
2024-02-26T06:35:24.333Z,43.00
2024-02-26T06:37:51.241Z,48.10
2024-02-26T06:40:18.188Z,55.20
2024-02-26T06:42:47.267Z,47.40
2024-02-26T06:45:15.710Z,49.33
2024-02-26T06:47:42.704Z,37.20
2024-02-26T06:50:13.263Z,37.83
2024-02-26T06:52:40.352Z,36.40
2024-02-26T06:55:08.358Z,47.73
2024-02-26T06:57:35.461Z,31.80
2024-02-26T07:00:02.621Z,48.57
2024-02-26T07:02:29.565Z,35.00
2024-02-26T07:04:56.558Z,41.43
2024-02-26T07:07:23.555Z,45.80
2024-02-26T07:09:50.912Z,50.80
2024-02-26T07:12:17.846Z,82.90
2024-02-26T07:14:44.822Z,50.70
2024-02-26T07:17:11.669Z,56.80
2024-02-26T07:19:38.740Z,62.23
2024-02-26T07:22:05.669Z,51.37
2024-02-26T07:24:32.688Z,101.07
2024-02-26T07:26:59.602Z,41.90
2024-02-26T07:29:26.574Z,27.73
2024-02-26T07:31:53.514Z,42.27
2024-02-26T07:34:20.536Z,97.43
2024-02-26T07:36:47.610Z,76.23
2024-02-26T07:39:14.513Z,51.47
2024-02-26T07:41:41.520Z,66.53
2024-02-26T07:44:08.952Z,44.10
2024-02-26T07:46:36.622Z,46.70
2024-02-26T07:49:03.622Z,38.53
2024-02-26T07:51:30.622Z,48.70
2024-02-26T07:53:57.530Z,33.47
2024-02-26T07:56:24.434Z,34.37
2024-02-26T07:58:51.333Z,43.97
2024-02-26T08:01:18.256Z,38.30
2024-02-26T08:03:45.300Z,49.83
2024-02-26T08:06:12.305Z,38.17
2024-02-26T08:08:39.269Z,49.83
2024-02-26T08:11:06.213Z,34.87
2024-02-26T08:13:33.169Z,50.07
2024-02-26T08:16:00.150Z,34.00
2024-02-26T08:18:27.193Z,39.03
2024-02-26T08:20:54.295Z,34.57
2024-02-26T08:23:21.461Z,32.23
2024-02-26T08:25:48.380Z,37.57
2024-02-26T08:28:15.336Z,31.17
2024-02-26T08:30:42.273Z,29.27
2024-02-26T08:33:09.305Z,30.20
2024-02-26T08:35:36.553Z,30.63
2024-02-26T08:38:03.691Z,27.83
2024-02-26T08:40:31.096Z,28.13
2024-02-26T08:42:58.080Z,28.93
2024-02-26T08:45:27.174Z,27.17
2024-02-26T08:47:55.024Z,26.00
2024-02-26T08:50:21.970Z,26.35
2024-02-26T08:52:48.830Z,26.00
2024-02-26T08:55:15.721Z,28.17
2024-02-26T08:57:42.679Z,31.33
2024-02-26T09:00:10.631Z,25.30
2024-02-26T09:02:37.529Z,29.70
2024-02-26T09:05:04.701Z,24.73
2024-02-26T09:07:31.661Z,27.67
2024-02-26T09:09:58.642Z,25.60
2024-02-26T09:12:25.676Z,23.33
2024-02-26T09:14:52.611Z,23.40
2024-02-26T09:17:19.580Z,23.90
2024-02-26T09:19:46.577Z,21.30
2024-02-26T09:22:15.387Z,22.03
2024-02-26T09:24:43.606Z,23.47
2024-02-26T09:27:10.574Z,19.67
2024-02-26T09:29:37.726Z,19.77
2024-02-26T09:32:05.118Z,17.57
2024-02-26T09:34:32.152Z,19.00
2024-02-26T09:37:05.236Z,17.33
2024-02-26T09:39:39.879Z,19.30
2024-02-26T09:42:07.055Z,21.43
2024-02-26T09:44:37.318Z,21.37
2024-02-26T09:47:04.530Z,18.20
2024-02-26T09:49:31.504Z,24.20
2024-02-26T09:52:00.635Z,22.57
2024-02-26T09:54:28.768Z,21.40
2024-02-26T09:57:04.501Z,20.33
2024-02-26T09:59:41.297Z,17.75
2024-02-26T10:02:14.371Z,17.77
2024-02-26T10:04:43.715Z,15.50
2024-02-26T10:07:14.368Z,14.43
2024-02-26T10:09:42.970Z,16.13
2024-02-26T10:12:12.495Z,14.70
2024-02-26T10:14:39.484Z,17.20
2024-02-26T10:17:09.095Z,15.10
2024-02-26T10:19:38.615Z,15.63
2024-02-26T10:22:06.764Z,13.93
2024-02-26T10:24:34.425Z,15.13
2024-02-26T10:27:01.440Z,15.63
2024-02-26T10:29:28.365Z,13.80
2024-02-26T10:31:55.323Z,16.40
2024-02-26T10:34:22.491Z,17.60
2024-02-26T10:36:53.840Z,15.30
2024-02-26T10:39:22.796Z,13.00
2024-02-26T10:41:51.373Z,14.17
2024-02-26T10:44:19.635Z,13.40
2024-02-26T10:46:49.262Z,14.03
2024-02-26T10:49:17.399Z,11.33
2024-02-26T10:51:46.601Z,13.03
2024-02-26T10:54:17.696Z,14.23
2024-02-26T10:56:48.244Z,12.73
2024-02-26T10:59:17.260Z,12.33
2024-02-26T11:01:45.065Z,13.17
2024-02-26T11:04:12.660Z,11.87
2024-02-26T11:06:39.986Z,13.13
2024-02-26T11:09:09.593Z,11.53
2024-02-26T11:11:36.823Z,12.27
2024-02-26T11:14:04.999Z,11.60
2024-02-26T11:16:32.560Z,10.07
2024-02-26T11:19:01.807Z,12.80
2024-02-26T11:21:28.919Z,13.23
2024-02-26T11:23:56.042Z,12.03
2024-02-26T11:26:25.219Z,11.77
2024-02-26T11:28:53.466Z,13.47
2024-02-26T11:31:20.687Z,12.40
2024-02-26T11:33:48.535Z,11.70
2024-02-26T11:36:15.771Z,13.03
2024-02-26T11:38:42.731Z,11.90
2024-02-26T11:41:09.681Z,11.20
2024-02-26T11:43:59.122Z,11.30
2024-02-26T11:46:31.193Z,11.87
2024-02-26T11:49:25.403Z,11.00
2024-02-26T11:51:54.082Z,10.80
2024-02-26T11:54:58.960Z,10.20
2024-02-26T11:57:30.111Z,9.67
2024-02-26T12:00:12.429Z,10.53
2024-02-26T12:02:46.816Z,11.57
2024-02-26T12:05:21.810Z,11.00
2024-02-26T12:08:06.232Z,9.50
2024-02-26T12:10:39.501Z,9.03
2024-02-26T12:13:19.078Z,11.00
2024-02-26T12:15:58.720Z,9.90
2024-02-26T12:18:26.209Z,9.83
2024-02-26T12:21:04.094Z,11.40
2024-02-26T12:23:31.852Z,9.73
2024-02-26T12:26:05.668Z,9.60
2024-02-26T12:28:34.826Z,9.60
2024-02-26T12:31:02.610Z,8.30
2024-02-26T12:33:31.263Z,8.70
2024-02-26T12:35:58.867Z,10.63
2024-02-26T12:38:25.969Z,10.50
2024-02-26T12:40:52.946Z,10.77
2024-02-26T12:43:20.047Z,8.10
2024-02-26T12:45:47.003Z,10.80
2024-02-26T12:48:14.976Z,10.57
2024-02-26T12:50:46.895Z,10.63
2024-02-26T12:53:13.998Z,9.53
2024-02-26T12:55:41.386Z,11.00
2024-02-26T12:58:09.243Z,9.77
2024-02-26T13:00:36.594Z,9.00
2024-02-26T13:03:04.112Z,11.50
2024-02-26T13:05:32.211Z,10.10
2024-02-26T13:07:59.340Z,11.00
2024-02-26T13:10:26.536Z,12.00
2024-02-26T13:12:53.723Z,10.47
2024-02-26T13:15:22.999Z,11.30
2024-02-26T13:17:51.434Z,12.20
2024-02-26T13:20:32.046Z,13.47
2024-02-26T13:23:10.099Z,11.50
2024-02-26T13:25:37.228Z,12.20
2024-02-26T13:28:11.145Z,13.00
2024-02-26T13:30:38.232Z,12.03
2024-02-26T13:33:13.153Z,11.43
2024-02-26T13:35:41.127Z,10.30
2024-02-26T13:38:08.881Z,10.27
2024-02-26T13:40:36.536Z,10.63
2024-02-26T13:43:04.522Z,9.07
2024-02-26T13:45:32.585Z,8.60
2024-02-26T13:48:05.862Z,8.03
2024-02-26T13:50:33.279Z,9.63
2024-02-26T13:53:00.179Z,7.93
2024-02-26T13:55:27.710Z,7.13
2024-02-26T13:57:55.141Z,7.30
2024-02-26T14:00:22.195Z,10.00
2024-02-26T14:02:49.306Z,7.17
2024-02-26T14:05:16.470Z,7.70
2024-02-26T14:07:44.226Z,8.47
2024-02-26T14:10:14.546Z,6.87
2024-02-26T14:12:41.574Z,7.97
2024-02-26T14:15:12.241Z,7.60
2024-02-26T14:17:39.208Z,10.67
2024-02-26T14:20:07.351Z,8.03
2024-02-26T14:22:34.341Z,10.03
2024-02-26T14:25:01.237Z,7.90
2024-02-26T14:27:28.273Z,7.30
2024-02-26T14:29:55.225Z,10.60
2024-02-26T14:32:22.162Z,8.03
2024-02-26T14:34:49.128Z,7.43
2024-02-26T14:37:16.194Z,7.80
2024-02-26T14:39:43.043Z,10.27
2024-02-26T14:42:09.988Z,7.53
2024-02-26T14:44:36.928Z,7.60
2024-02-26T14:47:04.042Z,8.20
2024-02-26T14:49:31.188Z,9.07
2024-02-26T14:51:58.185Z,9.37
2024-02-26T14:54:25.169Z,8.97
2024-02-26T14:56:52.131Z,9.47
2024-02-26T14:59:19.068Z,11.27
2024-02-26T15:01:47.930Z,14.40
2024-02-26T15:04:15.588Z,9.00
2024-02-26T15:06:42.843Z,8.47
2024-02-26T15:09:10.583Z,8.30
2024-02-26T15:11:41.089Z,12.40
2024-02-26T15:14:09.014Z,15.53
2024-02-26T15:16:35.944Z,14.03
2024-02-26T15:19:03.095Z,9.23
2024-02-26T15:21:30.894Z,9.70
2024-02-26T15:24:04.732Z,8.27
2024-02-26T15:26:35.533Z,11.90
2024-02-26T15:29:02.572Z,8.33
2024-02-26T15:31:29.481Z,8.30
2024-02-26T15:33:56.574Z,8.70
2024-02-26T15:36:23.656Z,8.97
2024-02-26T15:38:50.634Z,9.13
2024-02-26T15:41:17.654Z,10.37
2024-02-26T15:43:44.581Z,11.10
2024-02-26T15:46:11.516Z,8.90
2024-02-26T15:48:39.195Z,9.90
2024-02-26T15:51:06.455Z,11.70
2024-02-26T15:53:33.615Z,9.57
2024-02-26T15:56:01.173Z,9.03
2024-02-26T15:58:28.107Z,10.67
2024-02-26T16:00:56.658Z,11.57
2024-02-26T16:03:23.729Z,16.70
2024-02-26T16:05:51.063Z,16.23
2024-02-26T16:08:23.474Z,12.47
2024-02-26T16:10:50.591Z,13.30
2024-02-26T16:13:20.935Z,16.77
2024-02-26T16:16:22.000Z,13.20
2024-02-26T16:18:49.394Z,12.97
2024-02-26T16:21:16.473Z,14.43
2024-02-26T16:23:43.454Z,12.50
2024-02-26T16:26:10.342Z,11.63
2024-02-26T16:28:37.289Z,11.13
2024-02-26T16:31:04.445Z,13.27
2024-02-26T16:33:31.578Z,11.90
2024-02-26T16:35:58.639Z,10.20
2024-02-26T16:38:25.556Z,11.37
2024-02-26T16:40:52.567Z,12.00
2024-02-26T16:43:19.459Z,11.37
2024-02-26T16:45:46.511Z,11.73
2024-02-26T16:48:13.481Z,12.30
2024-02-26T16:50:40.528Z,11.13
2024-02-26T16:53:07.489Z,14.23
2024-02-26T16:55:34.448Z,11.60
2024-02-26T16:58:01.319Z,12.17
2024-02-26T17:00:28.247Z,10.87
2024-02-26T17:02:55.236Z,10.80
2024-02-26T17:05:22.182Z,10.87
2024-02-26T17:07:49.424Z,11.57
2024-02-26T17:10:16.502Z,13.60
2024-02-26T17:12:43.859Z,11.33
2024-02-26T17:15:10.952Z,10.63
2024-02-26T17:17:38.012Z,13.47
2024-02-26T17:20:05.956Z,17.00
2024-02-26T17:22:33.004Z,16.03
2024-02-26T17:25:00.060Z,16.40
2024-02-26T17:27:27.189Z,13.70
2024-02-26T17:29:54.224Z,15.73
2024-02-26T17:32:21.303Z,18.17
2024-02-26T17:34:48.343Z,26.73
2024-02-26T17:37:15.852Z,24.00
2024-02-26T17:39:42.871Z,20.53
2024-02-26T17:42:09.985Z,19.40
2024-02-26T17:44:40.346Z,16.70
2024-02-26T17:47:08.358Z,18.20
2024-02-26T17:49:35.860Z,15.67
2024-02-26T17:52:03.211Z,16.30
2024-02-26T17:54:30.422Z,17.33
2024-02-26T17:56:57.669Z,15.53
2024-02-26T17:59:24.580Z,16.23
2024-02-26T18:01:51.565Z,18.07
2024-02-26T18:04:18.478Z,17.77
2024-02-26T18:06:45.471Z,15.97
2024-02-26T18:09:14.170Z,17.07
2024-02-26T18:11:44.915Z,14.63
2024-02-26T18:14:11.931Z,15.37
2024-02-26T18:16:39.193Z,15.70
2024-02-26T18:19:06.344Z,15.70
2024-02-26T18:21:33.500Z,17.33
2024-02-26T18:24:00.591Z,18.70
2024-02-26T18:26:27.588Z,22.00
2024-02-26T18:28:54.520Z,30.10
2024-02-26T18:31:21.402Z,51.30
2024-02-26T18:33:48.523Z,38.97
2024-02-26T18:36:15.783Z,53.37
2024-02-26T18:38:42.729Z,54.90
2024-02-26T18:41:12.240Z,49.77
2024-02-26T18:43:39.179Z,50.63
2024-02-26T18:46:06.040Z,50.20
2024-02-26T18:48:34.894Z,41.90
2024-02-26T18:51:03.964Z,36.93
2024-02-26T18:53:30.831Z,34.43
2024-02-26T18:55:57.819Z,36.03
2024-02-26T18:58:24.731Z,24.23
2024-02-26T19:00:51.786Z,18.67
2024-02-26T19:03:18.845Z,20.27
2024-02-26T19:05:45.800Z,19.27
2024-02-26T19:08:12.755Z,18.77
2024-02-26T19:10:39.739Z,16.20
2024-02-26T19:13:09.709Z,18.37
2024-02-26T19:15:37.291Z,16.50
2024-02-26T19:18:04.719Z,15.97
2024-02-26T19:20:31.661Z,16.93
2024-02-26T19:22:58.592Z,19.43
2024-02-26T19:25:25.785Z,19.37
2024-02-26T19:27:53.026Z,18.47
2024-02-26T19:30:20.252Z,18.37
2024-02-26T19:32:47.290Z,21.03
2024-02-26T19:35:14.428Z,17.90
2024-02-26T19:37:41.429Z,17.17
2024-02-26T19:40:09.618Z,19.43
2024-02-26T19:42:36.730Z,17.77
2024-02-26T19:45:04.118Z,19.40
2024-02-26T19:47:31.351Z,26.37
2024-02-26T19:49:58.321Z,23.87
2024-02-26T19:52:25.264Z,21.87
2024-02-26T19:54:52.140Z,21.33
2024-02-26T19:57:19.171Z,22.00
2024-02-26T20:02:13.244Z,17.87
2024-02-26T20:04:40.226Z,18.40
2024-02-26T20:07:07.298Z,22.63
2024-02-26T20:09:34.475Z,14.97
2024-02-26T20:12:01.824Z,16.13
2024-02-26T20:14:29.733Z,14.07
2024-02-26T20:16:57.178Z,21.73
2024-02-26T20:19:24.252Z,14.93
2024-02-26T20:21:52.659Z,15.03
2024-02-26T20:24:19.744Z,14.53
2024-02-26T20:26:46.700Z,13.70
2024-02-26T20:29:13.713Z,17.97
2024-02-26T20:31:40.729Z,13.37
2024-02-26T20:34:07.733Z,13.23
2024-02-26T20:36:34.967Z,14.60
2024-02-26T20:39:03.686Z,14.77
2024-02-26T20:41:30.991Z,15.77
2024-02-26T20:43:57.996Z,21.70
2024-02-26T20:46:25.102Z,14.93
2024-02-26T20:48:52.534Z,16.70
2024-02-26T20:51:19.633Z,16.47
2024-02-26T20:53:46.739Z,17.20
2024-02-26T20:56:13.699Z,18.30
2024-02-26T20:58:40.572Z,16.40
2024-02-26T21:01:07.608Z,14.90
2024-02-26T21:03:34.681Z,18.90
2024-02-26T21:06:01.999Z,15.63
2024-02-26T21:08:37.238Z,17.40
2024-02-26T21:11:07.220Z,14.50
2024-02-26T21:13:36.438Z,15.00
2024-02-26T21:16:03.708Z,21.93
2024-02-26T21:18:32.153Z,17.43
2024-02-26T21:21:00.219Z,15.20
2024-02-26T21:23:27.120Z,14.87
2024-02-26T21:25:54.013Z,16.10
2024-02-26T21:28:20.999Z,14.03
2024-02-26T21:30:47.995Z,15.80
2024-02-26T21:33:15.121Z,15.83
2024-02-26T21:35:42.125Z,16.80
2024-02-26T21:38:10.428Z,18.83
2024-02-26T21:40:37.827Z,17.50
2024-02-26T21:43:04.886Z,15.93
2024-02-26T21:45:32.266Z,18.10
2024-02-26T21:47:59.319Z,19.17
2024-02-26T21:50:26.347Z,19.87
2024-02-26T21:52:53.284Z,18.40
2024-02-26T21:55:20.205Z,17.90
2024-02-26T21:57:47.186Z,18.00
2024-02-26T22:00:14.863Z,22.23
2024-02-26T22:02:42.593Z,17.30
2024-02-26T22:05:09.803Z,18.67
2024-02-26T22:07:37.021Z,17.13
2024-02-26T22:10:04.639Z,16.60
2024-02-26T22:12:31.590Z,18.10
2024-02-26T22:14:58.680Z,17.70
2024-02-26T22:17:25.684Z,18.00
2024-02-26T22:19:52.795Z,22.17
2024-02-26T22:22:20.839Z,18.93
2024-02-26T22:24:47.760Z,17.37
2024-02-26T22:27:14.769Z,18.90
2024-02-26T22:29:41.739Z,20.00
2024-02-26T22:32:08.921Z,19.40
2024-02-26T22:34:35.979Z,21.17
2024-02-26T22:37:03.181Z,17.83
2024-02-26T22:39:30.132Z,19.50
2024-02-26T22:41:57.115Z,18.03
2024-02-26T22:44:24.040Z,21.77
2024-02-26T22:46:50.962Z,17.07
2024-02-26T22:49:18.024Z,19.57
2024-02-26T22:51:45.108Z,17.17
2024-02-26T22:54:12.083Z,19.03
2024-02-26T22:56:39.067Z,19.70
2024-02-26T22:59:06.096Z,18.10
2024-02-26T23:01:34.218Z,18.97
2024-02-26T23:04:01.433Z,18.40
2024-02-26T23:06:28.409Z,19.93
2024-02-26T23:08:55.523Z,18.27
2024-02-26T23:11:22.438Z,20.80
2024-02-26T23:13:49.377Z,21.40
2024-02-26T23:16:16.302Z,18.20
2024-02-26T23:18:43.233Z,18.97
2024-02-26T23:21:10.255Z,18.10
2024-02-26T23:23:37.630Z,17.00
2024-02-26T23:26:04.852Z,16.83
2024-02-26T23:28:32.609Z,21.47
2024-02-26T23:30:59.580Z,18.80
2024-02-26T23:33:26.592Z,20.43
2024-02-26T23:35:53.649Z,17.90
2024-02-26T23:38:20.617Z,16.40
2024-02-26T23:40:47.539Z,20.40
2024-02-26T23:43:14.501Z,16.37
2024-02-26T23:45:41.546Z,20.57
2024-02-26T23:48:08.533Z,18.70
2024-02-26T23:50:35.534Z,17.83
2024-02-26T23:53:03.362Z,21.23
2024-02-26T23:55:31.086Z,18.27
2024-02-26T23:57:57.974Z,18.40
